Time;durP1;ratioP1;P1;durP2;ratioP2;P2;SDS_P1;SDS_P2;PMS_P1;PMS_P2;Temp;Humidity;BMP_temperature;BMP_pressure;BME280_temperature;BME280_humidity;BME280_pressure;Samples;Min_cycle;Max_cycle;Signal;HPM_P1;HPM_P2
2022/05/31 00:02:26;;;;;;;0.40;0.40;;;;;;;;;;1835161;77;26297;-52
2022/05/31 00:04:53;;;;;;;0.42;0.42;;;;;;;;;;1835883;77;26806;-53
2022/05/31 00:07:21;;;;;;;0.37;0.37;;;;;;;;;;1817345;78;26284;-54
2022/05/31 00:09:48;;;;;;;0.57;0.57;;;;;;;;;;1835731;76;26375;-48
2022/05/31 00:12:16;;;;;;;0.42;0.42;;;;;;;;;;1848607;77;26293;-47
2022/05/31 00:14:44;;;;;;;0.60;0.60;;;;;;;;;;1854147;76;26331;-55
2022/05/31 00:17:11;;;;;;;0.40;0.40;;;;;;;;;;1851458;76;26292;-55
2022/05/31 00:19:39;;;;;;;0.42;0.42;;;;;;;;;;1852023;76;26740;-55
2022/05/31 00:22:14;;;;;;;0.42;0.42;;;;;;;;;;1850414;76;26326;-53
2022/05/31 00:24:41;;;;;;;0.50;0.50;;;;;;;;;;1854154;76;27342;-53
2022/05/31 00:27:10;;;;;;;0.45;0.45;;;;;;;;;;1849262;76;26871;-47
2022/05/31 00:29:37;;;;;;;0.50;0.50;;;;;;;;;;1838912;76;26262;-50
2022/05/31 00:32:07;;;;;;;0.60;0.60;;;;;;;;;;1852462;76;26761;-47
2022/05/31 00:34:36;;;;;;;0.60;0.60;;;;;;;;;;1853584;76;26823;-55
2022/05/31 00:37:04;;;;;;;0.53;0.53;;;;;;;;;;1838467;76;26292;-49
2022/05/31 00:39:32;;;;;;;0.50;0.50;;;;;;;;;;1840504;76;26661;-47
2022/05/31 00:42:02;;;;;;;0.50;0.50;;;;;;;;;;1856465;76;26265;-54
2022/05/31 00:44:30;;;;;;;0.50;0.50;;;;;;;;;;1857489;76;26277;-52
2022/05/31 00:46:59;;;;;;;0.50;0.50;;;;;;;;;;1852392;76;26295;-53
2022/05/31 00:49:43;;;;;;;0.53;0.53;;;;;;;;;;1853349;76;26257;-53
2022/05/31 00:52:11;;;;;;;0.50;0.50;;;;;;;;;;1857429;77;26343;-49
2022/05/31 00:54:40;;;;;;;0.40;0.40;;;;;;;;;;1857219;76;26277;-48
2022/05/31 00:57:08;;;;;;;0.50;0.50;;;;;;;;;;1856427;76;26732;-53
2022/05/31 00:59:37;;;;;;;0.50;0.50;;;;;;;;;;1845688;76;26268;-51
2022/05/31 01:02:06;;;;;;;0.50;0.50;;;;;;;;;;1849505;76;26301;-52
2022/05/31 01:04:41;;;;;;;0.50;0.50;;;;;;;;;;1860422;77;26305;-45
2022/05/31 01:07:08;;;;;;;0.50;0.50;;;;;;;;;;1855109;76;26709;-53
2022/05/31 01:09:36;;;;;;;0.50;0.50;;;;;;;;;;1853606;76;26324;-52
2022/05/31 01:12:04;;;;;;;0.60;0.60;;;;;;;;;;1857448;77;27395;-49
2022/05/31 01:14:35;;;;;;;0.40;0.40;;;;;;;;;;1857448;76;26245;-50
2022/05/31 01:17:04;;;;;;;0.57;0.57;;;;;;;;;;1852900;76;26284;-55
2022/05/31 01:22:17;;;;;;;0.60;0.60;;;;;;;;;;1855073;76;26634;-50
2022/05/31 01:24:52;;;;;;;0.60;0.60;;;;;;;;;;1860431;76;26347;-53
2022/05/31 01:27:26;;;;;;;0.60;0.60;;;;;;;;;;1856239;76;26340;-54
2022/05/31 01:29:54;;;;;;;0.50;0.50;;;;;;;;;;1856446;76;26257;-51
2022/05/31 01:32:21;;;;;;;0.50;0.50;;;;;;;;;;1852123;76;26358;-48
2022/05/31 01:34:53;;;;;;;0.50;0.50;;;;;;;;;;1846407;76;26306;-47
2022/05/31 01:37:25;;;;;;;0.50;0.50;;;;;;;;;;1849215;76;26277;-52
2022/05/31 01:39:53;;;;;;;0.50;0.50;;;;;;;;;;1852947;76;26308;-49
2022/05/31 01:42:25;;;;;;;0.50;0.50;;;;;;;;;;1846798;76;26299;-50
2022/05/31 01:44:54;;;;;;;0.50;0.50;;;;;;;;;;1839675;77;26311;-54
2022/05/31 01:47:21;;;;;;;0.50;0.50;;;;;;;;;;1857164;77;26327;-53
2022/05/31 01:49:50;;;;;;;0.50;0.50;;;;;;;;;;1852750;77;26252;-47
2022/05/31 01:52:18;;;;;;;0.50;0.50;;;;;;;;;;1854334;76;25874;-52
2022/05/31 01:54:47;;;;;;;0.40;0.40;;;;;;;;;;1857019;77;26366;-50
2022/05/31 01:57:16;;;;;;;0.53;0.53;;;;;;;;;;1856799;76;26729;-50
2022/05/31 01:59:44;;;;;;;0.50;0.50;;;;;;;;;;1851388;76;26722;-47
2022/05/31 02:02:15;;;;;;;0.50;0.50;;;;;;;;;;1857114;77;26280;-57
2022/05/31 02:04:43;;;;;;;1.27;0.60;;;;;;;;;;1853180;76;26292;-51
2022/05/31 02:07:11;;;;;;;0.53;0.50;;;;;;;;;;1852611;76;26318;-50
2022/05/31 02:09:40;;;;;;;0.53;0.53;;;;;;;;;;1851638;76;26277;-54
2022/05/31 02:12:08;;;;;;;0.40;0.40;;;;;;;;;;1854188;76;26654;-48
2022/05/31 02:14:36;;;;;;;0.60;0.60;;;;;;;;;;1855247;76;26690;-46
2022/05/31 02:17:04;;;;;;;0.40;0.40;;;;;;;;;;1846403;76;26300;-53
2022/05/31 02:19:31;;;;;;;0.60;0.60;;;;;;;;;;1857612;76;26383;-48
2022/05/31 02:22:00;;;;;;;0.60;0.60;;;;;;;;;;1857258;76;26268;-55
2022/05/31 02:24:28;;;;;;;0.50;0.50;;;;;;;;;;1855094;76;26218;-55
2022/05/31 02:26:56;;;;;;;0.50;0.50;;;;;;;;;;1856281;76;26714;-49
2022/05/31 02:29:25;;;;;;;0.50;0.50;;;;;;;;;;1857215;76;26254;-54
2022/05/31 02:31:52;;;;;;;0.50;0.50;;;;;;;;;;1855744;76;26282;-48
2022/05/31 02:34:22;;;;;;;0.50;0.50;;;;;;;;;;1853926;76;27808;-48
2022/05/31 02:36:50;;;;;;;0.50;0.50;;;;;;;;;;1850452;77;26285;-47
2022/05/31 02:39:17;;;;;;;0.50;0.50;;;;;;;;;;1853637;76;26724;-50
2022/05/31 02:41:45;;;;;;;0.50;0.50;;;;;;;;;;1833642;76;25950;-46
2022/05/31 02:44:12;;;;;;;0.50;0.50;;;;;;;;;;1856798;76;26273;-46
2022/05/31 02:46:41;;;;;;;0.60;0.60;;;;;;;;;;1844039;76;26284;-51
2022/05/31 02:49:09;;;;;;;0.50;0.50;;;;;;;;;;1856587;76;26199;-53
2022/05/31 02:51:37;;;;;;;0.60;0.60;;;;;;;;;;1843361;76;26327;-49
2022/05/31 02:54:05;;;;;;;1.45;0.50;;;;;;;;;;1849710;76;26696;-49
2022/05/31 02:56:32;;;;;;;0.45;0.45;;;;;;;;;;1839469;76;26279;-49
2022/05/31 02:59:00;;;;;;;0.50;0.50;;;;;;;;;;1844002;76;26566;-47
2022/05/31 03:01:28;;;;;;;0.60;0.60;;;;;;;;;;1856992;76;26265;-45
2022/05/31 03:03:56;;;;;;;0.40;0.40;;;;;;;;;;1856672;76;26339;-53
2022/05/31 03:06:24;;;;;;;0.47;0.47;;;;;;;;;;1854653;76;26798;-46
2022/05/31 03:08:52;;;;;;;1.00;0.45;;;;;;;;;;1847335;76;26270;-50
2022/05/31 03:11:27;;;;;;;0.50;0.50;;;;;;;;;;1848066;76;26759;-50
2022/05/31 03:13:55;;;;;;;0.60;0.60;;;;;;;;;;1830500;76;26334;-49
2022/05/31 03:16:23;;;;;;;0.40;0.40;;;;;;;;;;1822024;77;26313;-50
2022/05/31 03:18:55;;;;;;;0.60;0.60;;;;;;;;;;1837844;77;27458;-48
2022/05/31 03:21:24;;;;;;;0.60;0.60;;;;;;;;;;1836418;77;26251;-46
2022/05/31 03:23:53;;;;;;;0.60;0.60;;;;;;;;;;1836525;77;26618;-46
2022/05/31 03:26:22;;;;;;;0.60;0.60;;;;;;;;;;1828956;77;26199;-49
2022/05/31 03:28:50;;;;;;;0.50;0.50;;;;;;;;;;1836619;77;26671;-47
2022/05/31 03:31:17;;;;;;;0.50;0.50;;;;;;;;;;1836611;77;26286;-50
2022/05/31 03:33:44;;;;;;;0.60;0.60;;;;;;;;;;1834616;77;26688;-51
2022/05/31 03:36:12;;;;;;;0.40;0.40;;;;;;;;;;1835722;78;26277;-54
2022/05/31 03:38:39;;;;;;;0.50;0.50;;;;;;;;;;1837449;77;26616;-53
2022/05/31 03:41:07;;;;;;;0.50;0.50;;;;;;;;;;1832172;78;26304;-49
2022/05/31 03:43:35;;;;;;;0.60;0.60;;;;;;;;;;1817443;77;26233;-47
2022/05/31 03:46:03;;;;;;;0.40;0.40;;;;;;;;;;1832120;77;26194;-47
2022/05/31 03:48:30;;;;;;;0.53;0.53;;;;;;;;;;1832749;78;26339;-52
2022/05/31 03:50:58;;;;;;;0.50;0.50;;;;;;;;;;1833678;77;26242;-53
2022/05/31 03:53:26;;;;;;;0.42;0.42;;;;;;;;;;1822151;77;26386;-48
2022/05/31 03:55:53;;;;;;;0.50;0.50;;;;;;;;;;1828792;77;26315;-46
2022/05/31 03:58:21;;;;;;;0.40;0.40;;;;;;;;;;1828835;77;26270;-51
2022/05/31 04:00:48;;;;;;;0.60;0.60;;;;;;;;;;1835041;77;26325;-49
2022/05/31 04:03:16;;;;;;;0.50;0.50;;;;;;;;;;1835774;77;26238;-49
2022/05/31 04:05:43;;;;;;;0.50;0.50;;;;;;;;;;1835278;78;26246;-51
2022/05/31 04:08:12;;;;;;;0.60;0.60;;;;;;;;;;1842139;77;26839;-51
2022/05/31 04:10:40;;;;;;;0.50;0.50;;;;;;;;;;1835426;77;26769;-53
2022/05/31 04:13:08;;;;;;;0.60;0.60;;;;;;;;;;1836322;77;26410;-55
2022/05/31 04:15:35;;;;;;;0.60;0.60;;;;;;;;;;1855315;77;26273;-54
2022/05/31 04:18:04;;;;;;;0.60;0.60;;;;;;;;;;1853914;77;26214;-53
2022/05/31 04:20:32;;;;;;;0.60;0.60;;;;;;;;;;1851207;76;26626;-51
2022/05/31 04:25:46;;;;;;;0.55;0.55;;;;;;;;;;1855297;76;26285;-47
2022/05/31 04:28:14;;;;;;;0.70;0.70;;;;;;;;;;1848680;76;26175;-48
2022/05/31 04:30:45;;;;;;;0.60;0.60;;;;;;;;;;1838805;76;26736;-50
2022/05/31 04:33:12;;;;;;;0.60;0.60;;;;;;;;;;1843458;76;26631;-53
2022/05/31 04:35:40;;;;;;;0.60;0.60;;;;;;;;;;1847505;76;26309;-52
2022/05/31 04:38:07;;;;;;;0.55;0.55;;;;;;;;;;1854670;76;26693;-57
2022/05/31 04:40:36;;;;;;;0.70;0.70;;;;;;;;;;1854537;76;26674;-51
2022/05/31 04:43:03;;;;;;;0.70;0.70;;;;;;;;;;1855557;76;26354;-54
2022/05/31 04:45:30;;;;;;;0.62;0.62;;;;;;;;;;1856316;76;26365;-52
2022/05/31 04:47:58;;;;;;;0.78;0.70;;;;;;;;;;1855801;77;26272;-47
2022/05/31 04:50:25;;;;;;;0.72;0.72;;;;;;;;;;1859502;76;26409;-51
2022/05/31 04:52:52;;;;;;;0.70;0.70;;;;;;;;;;1859043;77;26653;-55
2022/05/31 04:55:19;;;;;;;0.75;0.75;;;;;;;;;;1857270;76;26323;-55
2022/05/31 04:57:47;;;;;;;0.60;0.60;;;;;;;;;;1856785;76;26249;-50
2022/05/31 05:00:14;;;;;;;0.68;0.68;;;;;;;;;;1856133;76;26257;-51
2022/05/31 05:02:42;;;;;;;0.55;0.55;;;;;;;;;;1855366;76;26334;-55
2022/05/31 05:05:09;;;;;;;1.60;0.70;;;;;;;;;;1855823;76;26780;-53
2022/05/31 05:07:37;;;;;;;0.70;0.70;;;;;;;;;;1863259;76;26331;-50
2022/05/31 05:10:08;;;;;;;0.80;0.75;;;;;;;;;;1847183;76;26308;-52
2022/05/31 05:12:36;;;;;;;0.70;0.70;;;;;;;;;;1854612;77;26284;-50
2022/05/31 05:15:08;;;;;;;0.90;0.90;;;;;;;;;;1818866;77;26755;-57
2022/05/31 05:17:33;;;;;;;7.92;1.20;;;;;;;;;;1831814;77;26293;-53
2022/05/31 05:20:01;;;;;;;3.00;1.10;;;;;;;;;;1827050;77;26361;-52
2022/05/31 05:22:29;;;;;;;5.47;1.12;;;;;;;;;;1822741;77;26327;-50
2022/05/31 05:24:56;;;;;;;2.92;1.75;;;;;;;;;;1819368;77;26285;-46
2022/05/31 05:27:23;;;;;;;2.83;1.20;;;;;;;;;;1830491;76;26413;-51
2022/05/31 05:32:36;;;;;;;3.92;1.30;;;;;;;;;;1833239;76;26294;-54
2022/05/31 05:35:04;;;;;;;3.35;1.30;;;;;;;;;;1831169;76;26329;-56
2022/05/31 05:37:31;;;;;;;5.15;1.30;;;;;;;;;;1825712;76;26301;-55
2022/05/31 05:39:58;;;;;;;5.92;1.30;;;;;;;;;;1826345;77;26302;-53
2022/05/31 05:42:25;;;;;;;1.20;1.05;;;;;;;;;;1834393;77;26742;-51
2022/05/31 05:44:53;;;;;;;2.05;1.10;;;;;;;;;;1829230;77;26694;-51
2022/05/31 05:47:20;;;;;;;1.00;1.00;;;;;;;;;;1829561;77;26867;-49
2022/05/31 05:49:47;;;;;;;1.30;1.20;;;;;;;;;;1820461;77;26741;-50
2022/05/31 05:52:16;;;;;;;1.30;1.20;;;;;;;;;;1834568;78;26294;-48
2022/05/31 05:54:43;;;;;;;1.30;1.20;;;;;;;;;;1835341;77;26222;-47
2022/05/31 05:57:10;;;;;;;2.27;1.20;;;;;;;;;;1824419;77;26390;-51
2022/05/31 05:59:37;;;;;;;1.47;1.37;;;;;;;;;;1823191;77;26291;-51
2022/05/31 06:02:09;;;;;;;1.00;1.00;;;;;;;;;;1834110;77;26273;-52
2022/05/31 06:04:38;;;;;;;1.20;1.20;;;;;;;;;;1834244;77;26751;-53
2022/05/31 06:07:18;;;;;;;1.62;1.15;;;;;;;;;;1814228;77;26790;-55
2022/05/31 06:09:50;;;;;;;1.05;1.05;;;;;;;;;;1831222;78;26322;-50
2022/05/31 06:12:19;;;;;;;2.37;1.20;;;;;;;;;;1828069;78;26777;-52
2022/05/31 06:14:48;;;;;;;1.30;1.20;;;;;;;;;;1830435;77;26843;-52
2022/05/31 06:17:16;;;;;;;1.10;1.10;;;;;;;;;;1839034;77;26823;-52
2022/05/31 06:19:44;;;;;;;1.45;1.45;;;;;;;;;;1834174;76;26253;-47
2022/05/31 06:22:12;;;;;;;1.25;1.20;;;;;;;;;;1839610;76;26317;-48
2022/05/31 06:24:40;;;;;;;2.62;1.20;;;;;;;;;;1848139;76;26733;-53
2022/05/31 06:27:07;;;;;;;1.10;1.10;;;;;;;;;;1828001;76;26311;-53
2022/05/31 06:29:34;;;;;;;1.30;1.20;;;;;;;;;;1843662;76;26290;-53
2022/05/31 06:32:02;;;;;;;1.40;1.30;;;;;;;;;;1846910;76;26732;-47
2022/05/31 06:34:29;;;;;;;1.15;1.15;;;;;;;;;;1844166;76;26364;-51
2022/05/31 06:37:03;;;;;;;1.10;1.10;;;;;;;;;;1846861;76;26250;-47
2022/05/31 06:39:30;;;;;;;1.20;1.20;;;;;;;;;;1842458;76;26306;-45
2022/05/31 06:41:58;;;;;;;1.10;1.10;;;;;;;;;;1846782;76;26812;-52
2022/05/31 06:44:25;;;;;;;1.32;1.12;;;;;;;;;;1844784;76;26742;-48
2022/05/31 06:46:52;;;;;;;0.98;0.98;;;;;;;;;;1836218;76;26659;-48
2022/05/31 06:49:19;;;;;;;1.07;1.00;;;;;;;;;;1848259;76;26900;-47
2022/05/31 06:57:17;;;;;;;2.00;1.00;;;;;;;;;;1835304;77;26381;-56
2022/05/31 06:59:45;;;;;;;1.00;1.00;;;;;;;;;;1840906;76;26323;-49
2022/05/31 07:02:12;;;;;;;1.42;1.12;;;;;;;;;;1848254;77;26343;-59
2022/05/31 07:04:40;;;;;;;1.00;1.00;;;;;;;;;;1848126;76;26700;-59
2022/05/31 07:07:07;;;;;;;1.25;1.17;;;;;;;;;;1833626;76;26359;-61
2022/05/31 07:09:34;;;;;;;1.10;1.10;;;;;;;;;;1843736;77;26414;-59
2022/05/31 07:12:02;;;;;;;1.07;1.07;;;;;;;;;;1828100;76;26914;-58
2022/05/31 07:14:29;;;;;;;1.00;1.00;;;;;;;;;;1837550;76;26390;-53
2022/05/31 07:16:57;;;;;;;1.10;1.10;;;;;;;;;;1852433;76;26730;-52
2022/05/31 07:19:24;;;;;;;1.00;1.00;;;;;;;;;;1853727;76;26312;-49
2022/05/31 07:21:52;;;;;;;1.10;1.00;;;;;;;;;;1853656;76;26288;-57
2022/05/31 07:24:19;;;;;;;1.10;1.10;;;;;;;;;;1848529;76;26312;-60
2022/05/31 07:26:48;;;;;;;1.20;1.20;;;;;;;;;;1856821;76;26253;-50
2022/05/31 07:29:15;;;;;;;2.05;1.10;;;;;;;;;;1843817;76;26250;-48
2022/05/31 07:31:44;;;;;;;1.20;0.98;;;;;;;;;;1854719;76;26382;-52
2022/05/31 07:34:12;;;;;;;1.00;1.00;;;;;;;;;;1853793;76;26308;-55
2022/05/31 07:36:40;;;;;;;1.05;1.05;;;;;;;;;;1852211;76;26285;-46
2022/05/31 07:39:09;;;;;;;1.00;1.00;;;;;;;;;;1856540;76;26624;-47
2022/05/31 07:41:36;;;;;;;1.00;1.00;;;;;;;;;;1857225;76;27319;-53
2022/05/31 07:44:04;;;;;;;1.75;1.00;;;;;;;;;;1853591;76;26746;-56
2022/05/31 07:46:31;;;;;;;1.10;1.10;;;;;;;;;;1856415;76;26309;-51
2022/05/31 07:48:59;;;;;;;1.00;1.00;;;;;;;;;;1856208;76;26835;-52
2022/05/31 07:51:28;;;;;;;1.10;1.10;;;;;;;;;;1857014;77;26319;-45
2022/05/31 07:53:56;;;;;;;1.00;1.00;;;;;;;;;;1848460;76;26288;-51
2022/05/31 07:56:23;;;;;;;1.10;1.10;;;;;;;;;;1862288;76;26820;-53
2022/05/31 07:58:51;;;;;;;1.17;1.17;;;;;;;;;;1839477;76;26257;-50
2022/05/31 08:01:22;;;;;;;1.20;1.20;;;;;;;;;;1856990;77;26244;-52
2022/05/31 08:03:48;;;;;;;1.32;1.20;;;;;;;;;;1849281;76;26265;-47
2022/05/31 08:06:17;;;;;;;1.20;1.20;;;;;;;;;;1855623;77;26277;-50
2022/05/31 08:08:45;;;;;;;1.10;1.10;;;;;;;;;;1856065;76;27583;-55
2022/05/31 08:11:14;;;;;;;1.10;1.10;;;;;;;;;;1837590;77;26334;-54
2022/05/31 08:13:42;;;;;;;1.12;1.12;;;;;;;;;;1849829;76;26273;-50
2022/05/31 08:16:10;;;;;;;1.00;1.00;;;;;;;;;;1837854;76;26267;-48
2022/05/31 08:18:38;;;;;;;1.00;1.00;;;;;;;;;;1825246;77;26701;-57
2022/05/31 08:21:07;;;;;;;1.17;1.17;;;;;;;;;;1826199;77;26604;-52
2022/05/31 08:23:35;;;;;;;1.98;1.20;;;;;;;;;;1825834;77;26741;-57
2022/05/31 08:26:03;;;;;;;1.10;1.10;;;;;;;;;;1811647;77;26301;-55
2022/05/31 08:28:31;;;;;;;0.98;0.98;;;;;;;;;;1829693;78;26791;-58
2022/05/31 08:31:05;;;;;;;1.15;1.10;;;;;;;;;;1828331;77;26262;-57
2022/05/31 08:33:33;;;;;;;1.22;1.22;;;;;;;;;;1833200;77;26686;-57
2022/05/31 08:36:01;;;;;;;1.10;1.10;;;;;;;;;;1836162;77;26588;-52
2022/05/31 08:38:28;;;;;;;1.07;1.07;;;;;;;;;;1832589;77;26258;-59
2022/05/31 08:41:13;;;;;;;1.00;1.00;;;;;;;;;;1833019;77;26305;-58
2022/05/31 08:43:45;;;;;;;0.93;0.93;;;;;;;;;;1824983;78;26223;-56
2022/05/31 08:46:29;;;;;;;1.10;1.10;;;;;;;;;;1825142;77;27443;-56
2022/05/31 08:48:58;;;;;;;1.20;1.20;;;;;;;;;;1822684;77;26337;-53
2022/05/31 08:51:55;;;;;;;1.35;1.35;;;;;;;;;;1830939;77;26950;-52
2022/05/31 08:57:26;;;;;;;1.20;1.20;;;;;;;;;;1823824;77;26889;-54
2022/05/31 09:00:01;;;;;;;1.22;1.22;;;;;;;;;;1819821;77;26308;-54
2022/05/31 09:02:35;;;;;;;1.20;1.20;;;;;;;;;;1830775;77;26956;-60
2022/05/31 09:05:04;;;;;;;1.22;1.22;;;;;;;;;;1830357;77;26320;-62
2022/05/31 09:07:36;;;;;;;2.05;1.30;;;;;;;;;;1835064;77;26329;-56
2022/05/31 09:10:04;;;;;;;1.20;1.20;;;;;;;;;;1828613;77;26235;-59
2022/05/31 09:12:39;;;;;;;1.20;1.20;;;;;;;;;;1836285;77;26309;-55
2022/05/31 09:15:09;;;;;;;1.10;1.10;;;;;;;;;;1832978;76;26726;-61
2022/05/31 09:17:45;;;;;;;1.17;1.17;;;;;;;;;;1856391;76;26309;-62
2022/05/31 09:20:14;;;;;;;1.30;1.30;;;;;;;;;;1855129;76;26371;-64
2022/05/31 09:22:43;;;;;;;1.30;1.30;;;;;;;;;;1849794;76;26377;-64
2022/05/31 09:25:10;;;;;;;1.22;1.22;;;;;;;;;;1852939;76;26337;-61
2022/05/31 09:27:42;;;;;;;1.20;1.20;;;;;;;;;;1847320;76;26321;-62
2022/05/31 09:30:11;;;;;;;1.47;1.40;;;;;;;;;;1851044;76;26296;-63
2022/05/31 09:32:43;;;;;;;1.32;1.32;;;;;;;;;;1850655;76;26253;-62
2022/05/31 09:35:15;;;;;;;1.40;1.40;;;;;;;;;;1849468;76;26341;-63
2022/05/31 09:37:43;;;;;;;1.50;1.40;;;;;;;;;;1851035;76;26810;-59
2022/05/31 09:40:15;;;;;;;1.50;1.40;;;;;;;;;;1854503;76;26680;-48
2022/05/31 09:42:47;;;;;;;1.50;1.40;;;;;;;;;;1855273;76;26265;-65
2022/05/31 09:45:15;;;;;;;2.50;1.37;;;;;;;;;;1852652;76;26352;-60
2022/05/31 09:47:43;;;;;;;1.50;1.40;;;;;;;;;;1856025;76;26307;-61
2022/05/31 09:50:10;;;;;;;1.50;1.50;;;;;;;;;;1842089;77;26265;-59
2022/05/31 09:52:42;;;;;;;1.57;1.47;;;;;;;;;;1849898;77;26799;-59
2022/05/31 09:58:14;;;;;;;1.50;1.47;;;;;;;;;;1834732;77;26964;-62
2022/05/31 10:00:40;;;;;;;1.72;1.60;;;;;;;;;;1837403;76;25628;-61
2022/05/31 10:03:14;;;;;;;1.47;1.47;;;;;;;;;;1850969;76;26697;-56
2022/05/31 10:05:45;;;;;;;1.95;1.50;;;;;;;;;;1856482;76;26249;-48
2022/05/31 10:08:15;;;;;;;2.08;1.50;;;;;;;;;;1860370;76;26645;-46
2022/05/31 10:10:48;;;;;;;1.72;1.62;;;;;;;;;;1854556;76;26450;-52
2022/05/31 10:13:16;;;;;;;1.85;1.70;;;;;;;;;;1848270;77;25879;-46
2022/05/31 10:15:51;;;;;;;1.80;1.42;;;;;;;;;;1847625;76;26900;-47
2022/05/31 10:18:31;;;;;;;1.75;1.75;;;;;;;;;;1850490;76;26265;-48
2022/05/31 10:21:01;;;;;;;1.65;1.50;;;;;;;;;;1847241;76;26303;-51
2022/05/31 10:23:37;;;;;;;1.52;1.52;;;;;;;;;;1850579;77;26333;-52
2022/05/31 10:26:05;;;;;;;1.70;1.60;;;;;;;;;;1851044;76;26277;-52
2022/05/31 10:28:34;;;;;;;2.15;1.70;;;;;;;;;;1857170;76;26250;-51
2022/05/31 10:31:03;;;;;;;1.50;1.50;;;;;;;;;;1855144;76;26824;-47
2022/05/31 10:33:32;;;;;;;1.60;1.60;;;;;;;;;;1856933;76;26726;-47
2022/05/31 10:36:11;;;;;;;1.42;1.42;;;;;;;;;;1848172;76;26685;-47
2022/05/31 10:38:39;;;;;;;1.50;1.50;;;;;;;;;;1844038;76;26349;-47
2022/05/31 10:41:08;;;;;;;1.72;1.62;;;;;;;;;;1844070;76;27008;-53
2022/05/31 10:43:43;;;;;;;1.57;1.55;;;;;;;;;;1841006;76;25948;-48
2022/05/31 10:46:13;;;;;;;1.80;1.70;;;;;;;;;;1852662;76;26316;-52
2022/05/31 10:48:49;;;;;;;2.00;1.90;;;;;;;;;;1834742;76;26614;-52
2022/05/31 10:51:15;;;;;;;1.70;1.70;;;;;;;;;;1843522;76;26722;-51
2022/05/31 10:53:53;;;;;;;1.55;1.55;;;;;;;;;;1851993;76;27339;-50
2022/05/31 10:56:27;;;;;;;1.75;1.65;;;;;;;;;;1857496;76;26246;-46
2022/05/31 10:58:59;;;;;;;1.50;1.50;;;;;;;;;;1856359;76;26308;-49
2022/05/31 11:01:28;;;;;;;1.47;1.47;;;;;;;;;;1856235;76;27237;-51
2022/05/31 11:03:59;;;;;;;2.55;1.47;;;;;;;;;;1852914;76;27468;-46
2022/05/31 11:06:28;;;;;;;1.60;1.60;;;;;;;;;;1856106;76;26695;-52
2022/05/31 11:12:01;;;;;;;1.50;1.50;;;;;;;;;;1852273;76;26289;-58
2022/05/31 11:14:45;;;;;;;1.80;1.70;;;;;;;;;;1846478;76;26488;-52
2022/05/31 11:17:14;;;;;;;1.85;1.75;;;;;;;;;;1850208;76;26301;-48
2022/05/31 11:19:43;;;;;;;1.62;1.62;;;;;;;;;;1856855;76;26245;-46
2022/05/31 11:22:12;;;;;;;1.60;1.60;;;;;;;;;;1852151;77;26794;-52
2022/05/31 11:24:41;;;;;;;1.80;1.70;;;;;;;;;;1848214;76;26315;-47
2022/05/31 11:27:13;;;;;;;1.50;1.50;;;;;;;;;;1836693;76;26270;-46
2022/05/31 11:29:51;;;;;;;1.55;1.55;;;;;;;;;;1840567;76;26764;-45
2022/05/31 11:32:20;;;;;;;1.40;1.40;;;;;;;;;;1841414;76;26343;-49
2022/05/31 11:34:52;;;;;;;1.77;1.77;;;;;;;;;;1856609;76;26253;-50
2022/05/31 11:37:33;;;;;;;1.70;1.60;;;;;;;;;;1847874;76;26810;-45
2022/05/31 11:40:04;;;;;;;1.52;1.52;;;;;;;;;;1857424;76;26268;-44
2022/05/31 11:42:39;;;;;;;1.52;1.52;;;;;;;;;;1841973;77;26280;-46
2022/05/31 11:45:14;;;;;;;1.65;1.60;;;;;;;;;;1853285;76;26323;-48
2022/05/31 11:47:50;;;;;;;1.65;1.65;;;;;;;;;;1857600;76;26250;-46
2022/05/31 11:50:22;;;;;;;1.50;1.50;;;;;;;;;;1857115;76;26283;-47
2022/05/31 11:52:51;;;;;;;1.70;1.65;;;;;;;;;;1851398;76;26292;-48
2022/05/31 11:55:26;;;;;;;1.42;1.42;;;;;;;;;;1855932;76;26296;-45
2022/05/31 11:57:55;;;;;;;1.80;1.70;;;;;;;;;;1854581;76;26268;-49
2022/05/31 12:00:22;;;;;;;1.62;1.62;;;;;;;;;;1854092;76;26249;-51
2022/05/31 12:02:51;;;;;;;1.50;1.50;;;;;;;;;;1852499;76;26277;-60
2022/05/31 12:05:20;;;;;;;1.92;1.45;;;;;;;;;;1853355;76;26256;-58
2022/05/31 12:07:49;;;;;;;1.55;1.55;;;;;;;;;;1853106;76;26277;-48
2022/05/31 12:10:21;;;;;;;1.45;1.45;;;;;;;;;;1851399;76;26777;-48
2022/05/31 12:12:49;;;;;;;1.50;1.50;;;;;;;;;;1856132;76;26312;-50
2022/05/31 12:15:21;;;;;;;1.50;1.50;;;;;;;;;;1850377;76;26276;-59
2022/05/31 12:17:51;;;;;;;1.47;1.47;;;;;;;;;;1844141;76;26942;-59
2022/05/31 12:20:37;;;;;;;1.95;1.57;;;;;;;;;;1836765;77;26289;-50
2022/05/31 12:23:06;;;;;;;1.40;1.40;;;;;;;;;;1821212;77;26282;-50
2022/05/31 12:25:35;;;;;;;1.50;1.50;;;;;;;;;;1817117;77;26319;-45
2022/05/31 12:28:07;;;;;;;1.47;1.47;;;;;;;;;;1834777;77;26281;-53
2022/05/31 12:30:38;;;;;;;1.40;1.40;;;;;;;;;;1831286;77;26273;-50
2022/05/31 12:33:07;;;;;;;1.50;1.50;;;;;;;;;;1828024;77;26253;-49
2022/05/31 12:35:36;;;;;;;1.40;1.40;;;;;;;;;;1831516;77;26215;-54
2022/05/31 12:38:06;;;;;;;1.35;1.35;;;;;;;;;;1835009;77;26274;-48
2022/05/31 12:40:36;;;;;;;1.40;1.40;;;;;;;;;;1834927;77;26299;-51
2022/05/31 12:43:05;;;;;;;1.47;1.40;;;;;;;;;;1831796;77;25782;-50
2022/05/31 12:45:34;;;;;;;1.75;1.42;;;;;;;;;;1833607;77;26246;-50
2022/05/31 12:48:12;;;;;;;1.50;1.50;;;;;;;;;;1834155;77;26250;-50
2022/05/31 12:50:56;;;;;;;1.42;1.42;;;;;;;;;;1818264;77;26317;-59
2022/05/31 12:53:40;;;;;;;1.45;1.45;;;;;;;;;;1820705;77;26277;-48
2022/05/31 12:56:09;;;;;;;4.85;1.50;;;;;;;;;;1824903;77;26292;-48
2022/05/31 12:58:39;;;;;;;1.50;1.50;;;;;;;;;;1794903;78;26828;-47
2022/05/31 13:01:14;;;;;;;1.22;1.22;;;;;;;;;;1793891;78;26619;-52
2022/05/31 13:03:46;;;;;;;1.50;1.50;;;;;;;;;;1795174;78;26234;-44
2022/05/31 13:06:24;;;;;;;1.40;1.40;;;;;;;;;;1781445;79;26311;-46
2022/05/31 13:08:59;;;;;;;1.60;1.60;;;;;;;;;;1823401;77;26793;-48
2022/05/31 13:19:51;;;;;;;1.60;1.60;;;;;;;;;;1855800;76;26289;-52
2022/05/31 13:22:19;;;;;;;1.40;1.40;;;;;;;;;;1853145;76;26923;-49
2022/05/31 13:24:54;;;;;;;1.30;1.30;;;;;;;;;;1854710;76;26890;-47
2022/05/31 13:27:23;;;;;;;1.30;1.30;;;;;;;;;;1851109;76;26366;-47
2022/05/31 13:30:01;;;;;;;1.30;1.30;;;;;;;;;;1830516;76;26286;-48
2022/05/31 13:32:30;;;;;;;1.32;1.32;;;;;;;;;;1851453;76;26645;-47
2022/05/31 13:34:57;;;;;;;1.30;1.30;;;;;;;;;;1855796;76;26289;-53
2022/05/31 13:37:24;;;;;;;1.57;1.50;;;;;;;;;;1851763;76;26245;-49
2022/05/31 13:39:52;;;;;;;1.50;1.50;;;;;;;;;;1854707;76;26269;-51
2022/05/31 13:42:24;;;;;;;1.50;1.50;;;;;;;;;;1846352;76;26335;-51
2022/05/31 13:44:51;;;;;;;1.40;1.40;;;;;;;;;;1826919;76;26330;-52
2022/05/31 13:47:20;;;;;;;1.50;1.50;;;;;;;;;;1853794;76;26598;-51
2022/05/31 13:49:49;;;;;;;4.10;1.37;;;;;;;;;;1855910;76;26670;-52
2022/05/31 13:52:25;;;;;;;1.30;1.30;;;;;;;;;;1850000;76;26760;-54
2022/05/31 13:54:50;;;;;;;1.45;1.35;;;;;;;;;;1841041;76;26726;-55
2022/05/31 13:57:20;;;;;;;1.45;1.45;;;;;;;;;;1857557;76;26243;-53
2022/05/31 13:59:49;;;;;;;1.30;1.30;;;;;;;;;;1850253;76;26335;-54
2022/05/31 14:02:24;;;;;;;1.30;1.30;;;;;;;;;;1854835;76;26288;-52
2022/05/31 14:04:58;;;;;;;1.40;1.40;;;;;;;;;;1848770;76;26388;-56
2022/05/31 14:07:33;;;;;;;1.30;1.30;;;;;;;;;;1855254;76;26262;-53
2022/05/31 14:10:01;;;;;;;1.30;1.30;;;;;;;;;;1853164;76;26355;-57
2022/05/31 14:12:30;;;;;;;1.30;1.30;;;;;;;;;;1854184;76;26566;-58
2022/05/31 14:14:59;;;;;;;1.30;1.30;;;;;;;;;;1853343;76;26350;-54
2022/05/31 14:17:38;;;;;;;1.30;1.30;;;;;;;;;;1849736;76;26260;-51
2022/05/31 14:20:07;;;;;;;1.30;1.30;;;;;;;;;;1843372;76;26566;-52
2022/05/31 14:22:36;;;;;;;1.25;1.25;;;;;;;;;;1849525;76;26288;-52
2022/05/31 14:25:05;;;;;;;1.37;1.37;;;;;;;;;;1854180;76;26348;-57
2022/05/31 14:27:33;;;;;;;1.20;1.20;;;;;;;;;;1851385;76;26276;-51
2022/05/31 14:30:03;;;;;;;1.45;1.40;;;;;;;;;;1855515;76;26310;-57
2022/05/31 14:32:32;;;;;;;1.52;1.35;;;;;;;;;;1855070;76;26919;-59
2022/05/31 14:34:59;;;;;;;1.20;1.20;;;;;;;;;;1854465;76;26791;-55
2022/05/31 14:37:38;;;;;;;1.30;1.30;;;;;;;;;;1846289;76;26257;-53
2022/05/31 14:40:08;;;;;;;1.35;1.20;;;;;;;;;;1847938;76;26317;-52
2022/05/31 14:42:37;;;;;;;1.75;1.40;;;;;;;;;;1855364;76;26307;-55
2022/05/31 14:45:07;;;;;;;1.75;1.40;;;;;;;;;;1856729;76;26779;-52
2022/05/31 14:47:36;;;;;;;1.87;1.30;;;;;;;;;;1857210;76;26280;-52
2022/05/31 14:50:22;;;;;;;1.20;1.20;;;;;;;;;;1855524;77;26336;-56
2022/05/31 14:52:52;;;;;;;1.10;1.10;;;;;;;;;;1856384;76;26679;-55
2022/05/31 14:55:23;;;;;;;1.10;1.10;;;;;;;;;;1848670;76;26721;-49
2022/05/31 15:00:48;;;;;;;1.22;1.22;;;;;;;;;;1852608;76;26376;-60
2022/05/31 15:03:35;;;;;;;1.00;1.00;;;;;;;;;;1856102;76;26245;-55
2022/05/31 15:06:10;;;;;;;1.27;1.27;;;;;;;;;;1848727;77;26363;-56
2022/05/31 15:08:39;;;;;;;2.37;1.00;;;;;;;;;;1859854;76;26281;-52
2022/05/31 15:19:31;;;;;;;1.12;1.12;;;;;;;;;;1840699;77;26786;-56
2022/05/31 15:21:58;;;;;;;1.00;1.00;;;;;;;;;;1836699;77;26916;-55
2022/05/31 15:24:27;;;;;;;1.20;1.20;;;;;;;;;;1825713;77;26789;-53
2022/05/31 15:26:54;;;;;;;1.10;1.10;;;;;;;;;;1825879;77;27202;-53
2022/05/31 15:29:21;;;;;;;0.90;0.90;;;;;;;;;;1829234;77;26321;-51
2022/05/31 15:31:49;;;;;;;1.00;1.00;;;;;;;;;;1836218;77;26255;-50
2022/05/31 15:34:16;;;;;;;1.07;1.07;;;;;;;;;;1835316;77;26280;-55
2022/05/31 15:36:45;;;;;;;1.00;1.00;;;;;;;;;;1830411;77;26259;-52
2022/05/31 15:39:13;;;;;;;1.27;1.07;;;;;;;;;;1830825;77;26261;-53
2022/05/31 15:41:41;;;;;;;1.07;1.07;;;;;;;;;;1823193;77;26567;-52